Time;durP1;ratioP1;P1;durP2;ratioP2;P2;SDS_P1;SDS_P2;PMS_P1;PMS_P2;Temp;Humidity;BMP_temperature;BMP_pressure;BME280_temperature;BME280_humidity;BME280_pressure;Samples;Min_cycle;Max_cycle;Signal;HPM_P1;HPM_P2
2022/11/07 00:02:24;;;;;;;9.80;8.80;;;18.00;58.20;;;;;;5074407;28;20175;-73
2022/11/07 00:04:53;;;;;;;10.05;9.15;;;18.00;58.00;;;;;;5056021;28;20214;-72
2022/11/07 00:07:20;;;;;;;9.70;8.48;;;18.00;58.20;;;;;;5056207;28;20223;-72
2022/11/07 00:09:47;;;;;;;10.32;9.38;;;18.00;58.20;;;;;;5056495;28;20198;-72
2022/11/07 00:12:14;;;;;;;9.95;9.00;;;18.00;58.20;;;;;;5055902;28;20213;-72
2022/11/07 00:14:41;;;;;;;9.65;8.75;;;18.00;58.30;;;;;;5056450;28;20183;-72
2022/11/07 00:17:09;;;;;;;9.27;8.48;;;17.90;58.20;;;;;;5056272;28;20267;-72
2022/11/07 00:19:35;;;;;;;10.05;9.07;;;17.90;58.30;;;;;;5056783;28;20191;-72
2022/11/07 00:22:04;;;;;;;9.30;8.50;;;17.90;58.20;;;;;;5055885;28;20198;-72
2022/11/07 00:24:31;;;;;;;10.02;9.02;;;17.90;58.20;;;;;;5055778;28;20279;-72
2022/11/07 00:26:58;;;;;;;9.48;8.60;;;17.90;58.30;;;;;;5055697;28;20250;-72
2022/11/07 00:29:26;;;;;;;9.43;8.52;;;17.90;58.30;;;;;;5073569;28;20183;-70
2022/11/07 00:31:53;;;;;;;10.00;9.02;;;17.90;58.50;;;;;;5055571;28;20244;-72
2022/11/07 00:34:20;;;;;;;10.35;8.73;;;17.90;58.50;;;;;;5055732;28;20226;-72
2022/11/07 00:36:49;;;;;;;8.98;8.18;;;17.90;58.70;;;;;;5055546;28;20707;-72
2022/11/07 00:39:17;;;;;;;9.48;8.60;;;17.90;58.60;;;;;;5055563;28;20198;-72
2022/11/07 00:41:47;;;;;;;9.68;8.70;;;17.80;58.50;;;;;;5055640;28;20198;-72
2022/11/07 00:44:14;;;;;;;9.35;7.97;;;17.80;58.50;;;;;;5073729;28;20293;-72
2022/11/07 00:46:40;;;;;;;9.57;8.68;;;17.80;58.50;;;;;;5073493;28;20301;-73
2022/11/07 00:49:08;;;;;;;9.07;8.23;;;17.80;58.60;;;;;;5055610;28;20190;-72
2022/11/07 00:51:35;;;;;;;8.68;7.88;;;17.80;58.60;;;;;;5055700;28;20542;-72
2022/11/07 00:54:02;;;;;;;8.48;7.68;;;17.80;58.60;;;;;;5055633;28;20581;-72
2022/11/07 00:56:32;;;;;;;8.63;7.82;;;17.80;58.50;;;;;;5073726;28;20210;-72
2022/11/07 00:58:59;;;;;;;8.40;7.57;;;17.70;58.50;;;;;;5055730;28;20199;-72
2022/11/07 01:01:28;;;;;;;8.55;7.68;;;17.80;58.60;;;;;;5055574;28;20614;-73
2022/11/07 01:06:40;;;;;;;8.43;7.63;;;17.70;58.60;;;;;;5062709;28;20214;-73
2022/11/07 01:09:07;;;;;;;8.50;7.70;;;17.70;58.40;;;;;;5060513;28;20232;-73
2022/11/07 01:11:37;;;;;;;8.48;7.60;;;17.70;58.60;;;;;;5077550;28;20187;-73
2022/11/07 01:14:05;;;;;;;8.13;7.18;;;17.70;58.60;;;;;;5059473;28;20206;-73
2022/11/07 01:16:34;;;;;;;8.10;7.30;;;17.70;58.60;;;;;;5060198;28;20295;-73
2022/11/07 01:19:01;;;;;;;8.30;7.50;;;17.70;58.50;;;;;;5059489;28;20226;-73
2022/11/07 01:21:29;;;;;;;7.70;6.97;;;17.70;58.50;;;;;;5059562;28;20199;-73
2022/11/07 01:23:56;;;;;;;8.18;7.38;;;17.70;58.40;;;;;;5059454;28;20210;-73
2022/11/07 01:26:23;;;;;;;8.05;7.25;;;17.70;58.70;;;;;;5059003;28;20272;-73
2022/11/07 01:28:53;;;;;;;7.18;6.47;;;17.70;58.60;;;;;;5077578;28;20191;-72
2022/11/07 01:31:20;;;;;;;7.97;7.18;;;17.60;58.40;;;;;;5059037;28;20657;-72
2022/11/07 01:33:47;;;;;;;7.50;6.78;;;17.70;58.70;;;;;;5059093;28;20194;-73
2022/11/07 01:36:15;;;;;;;7.40;6.68;;;17.70;58.60;;;;;;5058932;28;20227;-72
2022/11/07 01:38:44;;;;;;;7.82;7.03;;;17.60;58.60;;;;;;5058811;28;20199;-73
2022/11/07 01:41:23;;;;;;;7.55;6.85;;;17.60;58.50;;;;;;5058717;28;20293;-73
2022/11/07 01:43:58;;;;;;;6.75;6.15;;;17.60;58.60;;;;;;5059138;28;20219;-72
2022/11/07 01:46:28;;;;;;;8.23;7.40;;;17.60;58.60;;;;;;5058808;28;20240;-72
2022/11/07 01:49:08;;;;;;;7.78;7.07;;;17.60;58.60;;;;;;5058757;28;20604;-72
2022/11/07 01:51:39;;;;;;;7.40;6.70;;;17.60;58.80;;;;;;5059586;28;20190;-72
2022/11/07 01:54:06;;;;;;;7.32;6.63;;;17.50;58.70;;;;;;5076334;28;20637;-72
2022/11/07 01:56:35;;;;;;;7.70;6.63;;;17.60;58.80;;;;;;5058190;28;20569;-72
2022/11/07 01:59:04;;;;;;;7.75;7.05;;;17.50;58.60;;;;;;5058322;28;20202;-72
2022/11/07 02:01:31;;;;;;;7.05;6.45;;;17.50;58.70;;;;;;5058465;28;20207;-72
2022/11/07 02:03:58;;;;;;;7.57;6.40;;;17.50;58.70;;;;;;5058235;28;20218;-73
2022/11/07 02:06:29;;;;;;;7.30;6.57;;;17.50;58.80;;;;;;5058375;28;20214;-73
2022/11/07 02:08:57;;;;;;;6.80;6.20;;;17.50;58.70;;;;;;5058155;28;20245;-72
2022/11/07 02:11:24;;;;;;;6.40;5.80;;;17.50;58.70;;;;;;5058070;28;20260;-72
2022/11/07 02:13:51;;;;;;;7.47;6.75;;;17.40;58.70;;;;;;5057683;28;20248;-73
2022/11/07 02:16:19;;;;;;;6.68;6.07;;;17.50;58.80;;;;;;5059439;28;20547;-73
2022/11/07 02:18:46;;;;;;;6.72;6.03;;;17.50;59.10;;;;;;5058010;28;20199;-73
2022/11/07 02:21:18;;;;;;;7.00;6.32;;;17.50;59.10;;;;;;5076092;28;20186;-73
2022/11/07 02:23:48;;;;;;;7.05;6.38;;;17.40;58.90;;;;;;5058047;28;20226;-72
2022/11/07 02:26:17;;;;;;;6.68;6.07;;;17.50;59.10;;;;;;5057780;28;20206;-72
2022/11/07 02:28:44;;;;;;;6.88;5.80;;;17.40;58.90;;;;;;5058461;28;20190;-71
2022/11/07 02:31:11;;;;;;;5.50;5.00;;;17.40;59.10;;;;;;5058021;28;20232;-70
2022/11/07 02:33:38;;;;;;;7.05;5.97;;;17.40;59.00;;;;;;5041433;28;20285;-70
2022/11/07 02:36:06;;;;;;;7.18;6.47;;;17.40;59.10;;;;;;5058129;28;20285;-70
2022/11/07 02:38:35;;;;;;;6.38;5.88;;;17.40;59.10;;;;;;5058181;28;20195;-71
2022/11/07 02:41:04;;;;;;;7.07;6.38;;;17.40;59.20;;;;;;5058030;28;20342;-71
2022/11/07 02:43:33;;;;;;;6.30;5.80;;;17.40;59.20;;;;;;5059048;28;20194;-71
2022/11/07 02:46:01;;;;;;;6.28;5.68;;;17.40;59.20;;;;;;5058170;28;20280;-70
2022/11/07 02:48:29;;;;;;;6.22;5.68;;;17.40;59.30;;;;;;5058122;28;20248;-71
2022/11/07 02:50:56;;;;;;;6.63;6.03;;;17.40;59.10;;;;;;5057654;28;20199;-71
2022/11/07 02:53:23;;;;;;;6.55;5.38;;;17.40;59.20;;;;;;5057758;28;20191;-70
2022/11/07 02:55:50;;;;;;;6.57;5.97;;;17.40;59.30;;;;;;5075752;28;20205;-70
2022/11/07 02:58:17;;;;;;;6.57;5.72;;;17.40;59.20;;;;;;5057638;28;20219;-70
2022/11/07 03:00:45;;;;;;;5.90;5.28;;;17.40;59.10;;;;;;5057719;28;20272;-71
2022/11/07 03:03:13;;;;;;;6.63;6.03;;;17.40;59.20;;;;;;5075695;28;20194;-71
2022/11/07 03:05:40;;;;;;;6.40;5.80;;;17.40;59.20;;;;;;5057749;28;20585;-71
2022/11/07 03:08:07;;;;;;;5.70;5.20;;;17.40;59.30;;;;;;5075707;28;20298;-71
2022/11/07 03:10:34;;;;;;;5.82;5.32;;;17.40;59.30;;;;;;5057925;28;20203;-71
2022/11/07 03:13:01;;;;;;;5.75;5.25;;;17.40;59.30;;;;;;5058495;28;20209;-72
2022/11/07 03:15:28;;;;;;;5.63;5.13;;;17.40;59.30;;;;;;5077413;28;20215;-72
2022/11/07 03:17:59;;;;;;;5.85;5.25;;;17.40;59.30;;;;;;5060690;28;20222;-71
2022/11/07 03:20:27;;;;;;;5.57;5.07;;;17.40;59.20;;;;;;5061103;28;20648;-71
2022/11/07 03:22:54;;;;;;;5.30;4.80;;;17.40;59.20;;;;;;5063266;28;20609;-72
2022/11/07 03:25:20;;;;;;;5.70;5.20;;;17.40;59.10;;;;;;5060220;28;20207;-71
2022/11/07 03:27:49;;;;;;;5.43;4.95;;;17.40;59.20;;;;;;5057667;28;20292;-71
2022/11/07 03:30:16;;;;;;;5.68;5.15;;;17.30;59.10;;;;;;5058804;28;20199;-71
2022/11/07 03:32:43;;;;;;;6.55;4.90;;;17.40;59.10;;;;;;5057976;28;20260;-71
2022/11/07 03:35:12;;;;;;;6.18;5.57;;;17.30;59.10;;;;;;5057629;28;20203;-71
2022/11/07 03:37:39;;;;;;;5.45;4.95;;;17.40;59.30;;;;;;5075268;28;20211;-73
2022/11/07 03:40:07;;;;;;;5.70;5.20;;;17.40;59.30;;;;;;5057949;28;20202;-73
2022/11/07 03:42:38;;;;;;;5.50;5.00;;;17.30;59.10;;;;;;5040657;28;20515;-72
2022/11/07 03:45:06;;;;;;;5.78;5.28;;;17.30;59.30;;;;;;5056692;28;20356;-72
2022/11/07 03:47:34;;;;;;;4.65;4.25;;;17.30;59.20;;;;;;5056954;28;20219;-73
2022/11/07 03:50:01;;;;;;;5.32;4.82;;;17.40;59.30;;;;;;5074824;28;20617;-72
2022/11/07 03:52:29;;;;;;;5.43;4.90;;;17.30;59.30;;;;;;5074415;28;20195;-72
2022/11/07 03:54:56;;;;;;;5.40;4.90;;;17.40;59.30;;;;;;5074572;28;20252;-72
2022/11/07 03:57:23;;;;;;;5.47;4.97;;;17.40;59.30;;;;;;5056415;28;20264;-72
2022/11/07 03:59:50;;;;;;;5.28;4.85;;;17.40;59.30;;;;;;5056017;28;20203;-72
2022/11/07 04:02:18;;;;;;;5.68;4.90;;;17.40;59.20;;;;;;5057233;28;20540;-72
2022/11/07 04:04:44;;;;;;;5.85;4.43;;;17.40;59.20;;;;;;5056220;28;20293;-72
2022/11/07 04:07:12;;;;;;;6.07;4.60;;;17.40;59.10;;;;;;5056296;28;20298;-72
2022/11/07 04:09:40;;;;;;;4.78;4.38;;;17.30;59.10;;;;;;5056301;28;20198;-72
2022/11/07 04:17:37;;;;;;;4.88;4.40;;;17.30;59.20;;;;;;5055961;28;20214;-73
2022/11/07 04:20:06;;;;;;;4.80;4.40;;;17.40;59.30;;;;;;5073931;28;20195;-72
2022/11/07 04:22:33;;;;;;;5.32;4.82;;;17.30;59.10;;;;;;5055746;28;20289;-73
2022/11/07 04:25:02;;;;;;;4.55;4.18;;;17.30;59.10;;;;;;5056047;28;20210;-72
2022/11/07 04:30:22;;;;;;;4.55;4.15;;;17.30;58.90;;;;;;5067136;28;20748;-72
2022/11/07 04:32:50;;;;;;;4.60;4.20;;;17.30;59.00;;;;;;5055747;28;20248;-73
2022/11/07 04:35:17;;;;;;;4.65;4.18;;;17.40;59.20;;;;;;5055856;28;20582;-72
2022/11/07 04:37:44;;;;;;;4.40;4.00;;;17.40;59.10;;;;;;5055516;28;20215;-73
2022/11/07 04:40:13;;;;;;;4.80;4.38;;;17.40;59.10;;;;;;5055557;28;20195;-73
2022/11/07 04:42:40;;;;;;;5.10;4.70;;;17.40;59.10;;;;;;5055555;28;20621;-72
2022/11/07 04:45:08;;;;;;;3.95;3.55;;;17.40;58.90;;;;;;5055605;28;20219;-72
2022/11/07 04:47:35;;;;;;;5.35;4.13;;;17.50;58.90;;;;;;5055532;28;20276;-72
2022/11/07 04:50:02;;;;;;;4.50;4.10;;;17.50;58.70;;;;;;5056111;28;20222;-72
2022/11/07 04:52:29;;;;;;;4.38;3.97;;;17.50;58.70;;;;;;5073656;28;20186;-73
2022/11/07 04:54:56;;;;;;;4.53;4.15;;;17.50;58.70;;;;;;5056549;28;20191;-72
2022/11/07 04:57:25;;;;;;;4.82;4.43;;;17.50;58.50;;;;;;5055303;28;20218;-72
2022/11/07 04:59:52;;;;;;;4.60;4.20;;;17.50;58.50;;;;;;5055469;28;20687;-73
2022/11/07 05:02:19;;;;;;;4.93;4.00;;;17.60;58.70;;;;;;5055661;28;20224;-73
2022/11/07 05:04:46;;;;;;;4.47;4.07;;;17.50;58.40;;;;;;5055297;28;20240;-72
2022/11/07 05:07:13;;;;;;;4.18;3.78;;;17.50;58.40;;;;;;5055474;28;20324;-73
2022/11/07 05:09:41;;;;;;;4.43;4.03;;;17.50;58.40;;;;;;5073481;28;20537;-72
2022/11/07 05:12:08;;;;;;;4.32;3.92;;;17.60;58.40;;;;;;5055309;28;20203;-72
2022/11/07 05:14:36;;;;;;;4.25;3.85;;;17.50;58.20;;;;;;5055351;28;20226;-72
2022/11/07 05:17:03;;;;;;;4.40;4.00;;;17.50;58.20;;;;;;5073251;28;20234;-72
2022/11/07 05:19:32;;;;;;;4.40;4.00;;;17.50;58.20;;;;;;5055878;28;20205;-73
2022/11/07 05:24:43;;;;;;;4.57;4.18;;;17.50;58.20;;;;;;5055979;28;20271;-72
2022/11/07 05:27:16;;;;;;;5.43;4.07;;;17.50;58.40;;;;;;5055158;28;20222;-72
2022/11/07 05:29:45;;;;;;;4.13;3.70;;;17.60;58.40;;;;;;5054954;28;20711;-72
2022/11/07 05:32:12;;;;;;;3.92;3.60;;;17.60;58.60;;;;;;5055231;28;20210;-72
2022/11/07 05:34:40;;;;;;;4.03;3.60;;;17.50;58.70;;;;;;5073052;28;20191;-72
2022/11/07 05:37:07;;;;;;;3.97;3.67;;;17.50;58.70;;;;;;5038890;28;20225;-72
2022/11/07 05:39:36;;;;;;;4.28;3.85;;;17.60;58.90;;;;;;5072853;28;20183;-72
2022/11/07 05:42:03;;;;;;;4.03;3.70;;;17.50;58.70;;;;;;5055211;28;20202;-72
2022/11/07 05:44:31;;;;;;;4.25;3.85;;;17.50;58.70;;;;;;5054696;28;20199;-72
2022/11/07 05:46:59;;;;;;;4.13;3.72;;;17.50;58.90;;;;;;5055958;28;20306;-71
2022/11/07 05:49:27;;;;;;;4.13;3.60;;;17.60;58.80;;;;;;5073894;28;20187;-71
2022/11/07 05:51:54;;;;;;;3.88;3.58;;;17.50;58.80;;;;;;5058611;28;20229;-71
2022/11/07 05:54:22;;;;;;;4.03;3.40;;;17.60;58.80;;;;;;5058480;28;20656;-71
2022/11/07 05:56:49;;;;;;;3.45;3.15;;;17.60;58.90;;;;;;5059045;28;20261;-71
2022/11/07 05:59:16;;;;;;;3.85;3.00;;;17.60;58.70;;;;;;5058332;28;20186;-71
2022/11/07 06:01:43;;;;;;;4.35;3.55;;;17.70;58.70;;;;;;5058379;28;20210;-71
2022/11/07 06:04:12;;;;;;;3.50;3.20;;;17.70;59.00;;;;;;5059148;28;20304;-71
2022/11/07 06:06:39;;;;;;;6.65;3.63;;;17.70;58.40;;;;;;5057960;28;20230;-71
2022/11/07 06:09:06;;;;;;;3.53;3.22;;;17.70;58.40;;;;;;5058317;28;20225;-71
2022/11/07 06:11:33;;;;;;;4.03;3.30;;;17.70;58.40;;;;;;5058128;28;20209;-71
2022/11/07 06:14:00;;;;;;;5.35;3.30;;;17.70;58.40;;;;;;5058168;28;20203;-71
2022/11/07 06:16:27;;;;;;;3.10;2.85;;;17.70;58.40;;;;;;5058608;28;20231;-71
2022/11/07 06:18:54;;;;;;;3.42;3.13;;;17.70;58.20;;;;;;5058547;28;20207;-71
2022/11/07 06:21:22;;;;;;;4.70;3.22;;;17.70;58.10;;;;;;5076032;28;20241;-71
2022/11/07 06:23:49;;;;;;;4.07;3.50;;;17.70;58.00;;;;;;5058062;28;20191;-71
2022/11/07 06:26:17;;;;;;;3.42;2.88;;;17.70;58.00;;;;;;5058879;28;20210;-71
2022/11/07 06:28:44;;;;;;;2.92;2.72;;;17.70;57.90;;;;;;5058718;28;20210;-70
2022/11/07 06:31:11;;;;;;;3.75;3.45;;;17.70;57.80;;;;;;5058738;28;20199;-71
2022/11/07 06:33:38;;;;;;;4.55;3.20;;;17.70;57.70;;;;;;5058211;28;20260;-71
2022/11/07 06:36:06;;;;;;;3.65;3.33;;;17.70;57.60;;;;;;5057739;28;20625;-71
2022/11/07 06:38:34;;;;;;;3.30;3.00;;;17.70;57.60;;;;;;5058511;28;20268;-71
2022/11/07 06:41:06;;;;;;;3.40;3.10;;;17.70;57.50;;;;;;5057792;28;20570;-71
2022/11/07 06:43:34;;;;;;;3.20;2.90;;;17.70;57.30;;;;;;5058329;28;20280;-72
2022/11/07 06:46:02;;;;;;;4.10;3.03;;;17.80;57.10;;;;;;5057465;28;20218;-72
2022/11/07 06:48:29;;;;;;;3.63;3.10;;;17.80;57.10;;;;;;5057836;28;20248;-72
2022/11/07 06:50:57;;;;;;;3.20;2.90;;;17.80;57.20;;;;;;5057895;28;20252;-72
2022/11/07 06:53:24;;;;;;;3.22;2.80;;;17.80;56.90;;;;;;5057797;28;20649;-72
2022/11/07 06:55:52;;;;;;;3.78;2.70;;;17.80;57.00;;;;;;5075459;28;20187;-71
2022/11/07 06:58:20;;;;;;;3.65;2.80;;;17.90;56.90;;;;;;5075433;28;20213;-71
2022/11/07 07:00:46;;;;;;;4.07;3.13;;;17.90;57.10;;;;;;5057168;28;20202;-71
2022/11/07 07:03:14;;;;;;;4.53;2.92;;;17.90;56.90;;;;;;5075070;28;20194;-71
2022/11/07 07:05:41;;;;;;;3.53;3.17;;;17.90;57.10;;;;;;5057004;28;20211;-71
2022/11/07 07:08:10;;;;;;;3.10;2.80;;;17.90;57.00;;;;;;5057040;28;20218;-71
2022/11/07 07:10:38;;;;;;;3.55;3.22;;;17.90;56.90;;;;;;5057169;28;20203;-71
2022/11/07 07:13:06;;;;;;;3.22;2.50;;;18.00;57.00;;;;;;5056971;28;20182;-71
2022/11/07 07:15:33;;;;;;;3.50;3.20;;;18.00;56.70;;;;;;5057120;28;20195;-71
2022/11/07 07:18:00;;;;;;;2.83;2.63;;;18.00;56.50;;;;;;5074664;28;20211;-71
2022/11/07 07:20:27;;;;;;;3.03;2.72;;;18.10;56.60;;;;;;5056927;28;20199;-71
2022/11/07 07:22:55;;;;;;;3.28;2.80;;;18.10;56.50;;;;;;5056662;28;20199;-71
2022/11/07 07:25:22;;;;;;;3.03;2.72;;;18.10;56.40;;;;;;5057026;28;20218;-71
2022/11/07 07:27:48;;;;;;;3.65;2.90;;;18.20;56.50;;;;;;5056541;28;20222;-72
2022/11/07 07:30:17;;;;;;;2.92;2.72;;;18.20;56.40;;;;;;5056601;28;20190;-72
2022/11/07 07:32:44;;;;;;;4.03;2.55;;;18.20;56.20;;;;;;5056571;28;20209;-72
2022/11/07 07:35:11;;;;;;;2.92;2.72;;;18.20;56.10;;;;;;5074379;28;20194;-72
2022/11/07 07:37:39;;;;;;;3.67;2.63;;;18.30;56.20;;;;;;5056299;28;20715;-72
2022/11/07 07:40:07;;;;;;;4.07;2.67;;;18.30;56.10;;;;;;5056898;28;20214;-72
2022/11/07 07:42:34;;;;;;;3.15;2.95;;;18.30;56.10;;;;;;5056477;28;20198;-71
2022/11/07 07:45:01;;;;;;;3.17;2.85;;;18.30;56.10;;;;;;5074510;28;20649;-71
2022/11/07 07:47:29;;;;;;;2.72;2.53;;;18.30;56.00;;;;;;5056513;28;20230;-71
2022/11/07 07:49:56;;;;;;;3.60;2.72;;;18.30;55.90;;;;;;5056616;28;20571;-71
2022/11/07 07:52:23;;;;;;;4.72;3.08;;;18.40;55.90;;;;;;5056673;28;20199;-71
2022/11/07 07:54:50;;;;;;;3.80;3.40;;;18.40;55.90;;;;;;5056554;28;20195;-71
2022/11/07 07:57:17;;;;;;;4.35;3.55;;;18.50;55.80;;;;;;5074498;28;20234;-71
2022/11/07 07:59:44;;;;;;;3.85;3.50;;;18.50;55.80;;;;;;5057482;28;20583;-71
2022/11/07 08:02:12;;;;;;;3.50;2.80;;;18.50;55.80;;;;;;5057057;28;20289;-71
2022/11/07 08:04:41;;;;;;;2.72;2.42;;;18.50;55.70;;;;;;5057264;28;20187;-71
2022/11/07 08:07:09;;;;;;;3.00;2.70;;;18.50;55.70;;;;;;5057765;28;20229;-71
2022/11/07 08:09:36;;;;;;;3.33;2.55;;;18.60;55.70;;;;;;5040629;28;20199;-72
2022/11/07 08:12:04;;;;;;;2.72;2.53;;;18.60;55.60;;;;;;5056345;28;20635;-72
2022/11/07 08:14:31;;;;;;;3.15;2.45;;;18.60;55.70;;;;;;5056244;28;20198;-71
2022/11/07 08:16:58;;;;;;;2.55;2.35;;;18.70;55.70;;;;;;5056012;28;20218;-71
2022/11/07 08:19:25;;;;;;;2.72;2.50;;;18.70;55.70;;;;;;5074137;28;20682;-71
2022/11/07 08:21:54;;;;;;;3.08;2.58;;;18.70;55.80;;;;;;5055910;28;20194;-71
2022/11/07 08:24:21;;;;;;;2.70;2.50;;;18.70;55.60;;;;;;5073705;28;20187;-71
2022/11/07 08:26:48;;;;;;;3.22;2.70;;;18.60;55.70;;;;;;5055964;28;20227;-71
2022/11/07 08:29:15;;;;;;;4.22;2.83;;;18.70;55.70;;;;;;5073672;28;20680;-71
2022/11/07 08:31:42;;;;;;;4.57;2.58;;;18.60;55.70;;;;;;5073991;28;20191;-71
2022/11/07 08:34:09;;;;;;;3.03;2.45;;;18.70;55.70;;;;;;5055673;28;20209;-71
2022/11/07 08:36:35;;;;;;;2.92;2.53;;;18.70;55.70;;;;;;5073342;28;20553;-71
2022/11/07 08:39:04;;;;;;;2.80;2.50;;;18.70;55.70;;;;;;5073548;28;20194;-71
2022/11/07 08:41:31;;;;;;;3.35;2.55;;;18.70;55.70;;;;;;5055534;28;20193;-71
2022/11/07 08:43:58;;;;;;;2.80;2.60;;;18.70;55.70;;;;;;5055493;28;20203;-71
2022/11/07 08:46:25;;;;;;;2.60;2.40;;;18.70;55.80;;;;;;5073543;28;20219;-71
2022/11/07 08:48:52;;;;;;;3.22;2.50;;;18.70;55.90;;;;;;5055942;28;20198;-71
2022/11/07 08:51:19;;;;;;;2.70;2.38;;;18.80;55.90;;;;;;5055615;28;20256;-71
2022/11/07 08:53:46;;;;;;;2.88;2.33;;;18.80;55.70;;;;;;5055489;28;20684;-71
2022/11/07 08:56:14;;;;;;;3.90;2.58;;;18.90;55.60;;;;;;5056243;28;20198;-71
2022/11/07 08:58:41;;;;;;;3.17;2.35;;;19.00;55.50;;;;;;5055526;28;20289;-72
2022/11/07 09:01:09;;;;;;;2.55;2.35;;;19.00;55.30;;;;;;5055246;28;20206;-71
2022/11/07 09:03:36;;;;;;;2.60;2.40;;;19.00;55.20;;;;;;5055349;28;20213;-71
2022/11/07 09:06:04;;;;;;;2.75;2.45;;;19.10;55.00;;;;;;5073190;28;20206;-71
2022/11/07 09:08:31;;;;;;;2.90;2.20;;;19.10;54.90;;;;;;5055608;28;20205;-71
2022/11/07 09:11:02;;;;;;;3.08;2.20;;;19.20;54.90;;;;;;5055668;28;20622;-71
2022/11/07 09:13:31;;;;;;;2.58;2.35;;;19.30;54.80;;;;;;5073403;28;20175;-71
2022/11/07 09:15:59;;;;;;;3.42;2.28;;;19.30;54.70;;;;;;5073157;28;20190;-71
2022/11/07 09:18:26;;;;;;;2.97;2.40;;;19.30;54.50;;;;;;5055008;28;20313;-71
2022/11/07 09:20:54;;;;;;;2.58;2.17;;;19.40;54.50;;;;;;5055186;28;20235;-71
2022/11/07 09:23:21;;;;;;;2.92;2.25;;;19.40;54.50;;;;;;5055421;28;20191;-71
2022/11/07 09:25:48;;;;;;;2.40;2.20;;;19.40;54.20;;;;;;5058342;28;20202;-71
2022/11/07 09:28:15;;;;;;;3.70;2.58;;;19.40;54.20;;;;;;5059128;28;20280;-71
2022/11/07 09:30:45;;;;;;;3.15;2.25;;;19.50;54.30;;;;;;5058869;28;20657;-71
2022/11/07 09:33:12;;;;;;;2.50;2.25;;;19.50;54.20;;;;;;5077012;28;20710;-71
2022/11/07 09:35:39;;;;;;;3.03;2.50;;;19.50;54.20;;;;;;5058784;28;20218;-71
2022/11/07 09:38:06;;;;;;;2.83;2.17;;;19.50;54.20;;;;;;5058552;28;20268;-71
2022/11/07 09:40:41;;;;;;;2.60;2.38;;;19.50;54.20;;;;;;5076644;28;20201;-71
2022/11/07 09:43:30;;;;;;;2.58;2.08;;;19.60;54.20;;;;;;5058544;28;20641;-71
2022/11/07 09:46:03;;;;;;;2.92;2.30;;;19.60;54.20;;;;;;5058371;28;20264;-71
2022/11/07 09:48:34;;;;;;;3.00;2.30;;;19.60;54.00;;;;;;5058465;28;20187;-71
2022/11/07 09:51:01;;;;;;;2.45;2.20;;;19.60;54.20;;;;;;5058443;28;20241;-71
2022/11/07 09:53:30;;;;;;;2.30;2.10;;;19.60;54.20;;;;;;5042039;28;20202;-71
2022/11/07 09:55:59;;;;;;;2.25;2.03;;;19.60;54.20;;;;;;5058679;28;20213;-71
2022/11/07 09:58:27;;;;;;;2.10;1.90;;;19.60;54.20;;;;;;5058251;28;20222;-71
2022/11/07 10:00:58;;;;;;;2.88;2.33;;;19.60;54.20;;;;;;5058102;28;20624;-71
2022/11/07 10:03:27;;;;;;;2.97;2.17;;;19.60;54.10;;;;;;5058166;28;20203;-71
2022/11/07 10:06:00;;;;;;;2.78;2.10;;;19.60;53.80;;;;;;5058153;28;20224;-71
2022/11/07 10:08:29;;;;;;;2.45;2.17;;;19.60;53.90;;;;;;5058289;28;20223;-71
2022/11/07 10:10:59;;;;;;;2.35;2.13;;;19.60;53.90;;;;;;5058093;28;20228;-72
2022/11/07 10:13:54;;;;;;;3.10;2.13;;;19.60;54.00;;;;;;5058253;28;20205;-71
2022/11/07 10:16:25;;;;;;;2.70;2.20;;;19.60;53.90;;;;;;5038678;28;20194;-72
2022/11/07 10:18:59;;;;;;;2.50;2.30;;;19.60;53.70;;;;;;5058172;28;20189;-72
2022/11/07 10:21:30;;;;;;;3.03;2.20;;;19.70;53.90;;;;;;5058509;28;20241;-72
2022/11/07 10:24:04;;;;;;;4.72;2.33;;;19.70;53.90;;;;;;5058573;28;20203;-72
2022/11/07 10:26:31;;;;;;;3.08;2.30;;;19.70;53.80;;;;;;5075874;28;20223;-71
2022/11/07 10:29:00;;;;;;;2.25;2.05;;;19.70;53.80;;;;;;5075949;28;20668;-72
2022/11/07 10:31:30;;;;;;;2.75;2.00;;;19.70;53.80;;;;;;5075736;28;20190;-72
2022/11/07 10:34:00;;;;;;;2.97;2.17;;;19.70;53.80;;;;;;5057966;28;20301;-72
2022/11/07 10:36:28;;;;;;;2.15;1.95;;;19.70;53.80;;;;;;5075576;28;20203;-72
2022/11/07 10:38:55;;;;;;;2.40;2.03;;;19.70;54.40;;;;;;5075931;28;20191;-72
2022/11/07 10:41:25;;;;;;;2.20;2.00;;;19.70;53.70;;;;;;5057746;28;20286;-71
2022/11/07 10:43:53;;;;;;;2.78;2.00;;;19.70;54.30;;;;;;5058864;28;20202;-71
2022/11/07 10:46:22;;;;;;;2.30;1.98;;;19.80;53.70;;;;;;5075736;28;20271;-71
2022/11/07 10:48:51;;;;;;;2.08;1.88;;;19.80;53.70;;;;;;5057738;28;20205;-71
2022/11/07 10:51:19;;;;;;;2.08;1.90;;;19.80;53.60;;;;;;5058174;28;20221;-71
2022/11/07 10:53:46;;;;;;;2.30;2.10;;;19.80;53.70;;;;;;5057316;28;20195;-71
2022/11/07 10:56:13;;;;;;;2.33;1.90;;;19.80;53.70;;;;;;5057138;28;20210;-71
2022/11/07 10:58:44;;;;;;;2.58;1.85;;;19.70;53.70;;;;;;5057540;28;20645;-71
2022/11/07 11:01:11;;;;;;;2.08;1.88;;;19.80;53.80;;;;;;5057013;28;20226;-71
2022/11/07 11:03:40;;;;;;;1.98;1.88;;;19.80;53.80;;;;;;5057182;28;20212;-71
2022/11/07 11:06:12;;;;;;;2.38;1.98;;;19.80;53.70;;;;;;5057457;28;20219;-71
2022/11/07 11:08:40;;;;;;;2.47;2.15;;;19.90;53.80;;;;;;5057393;28;20195;-71
2022/11/07 11:11:14;;;;;;;2.30;2.00;;;19.90;53.70;;;;;;5056976;28;20226;-71
2022/11/07 11:13:41;;;;;;;1.98;1.88;;;19.90;53.60;;;;;;5075026;28;20186;-71
2022/11/07 11:16:20;;;;;;;2.95;2.30;;;19.90;53.50;;;;;;5074622;28;20197;-71
2022/11/07 11:18:48;;;;;;;2.10;1.90;;;20.00;53.50;;;;;;5056785;28;20194;-71
2022/11/07 11:21:15;;;;;;;2.20;2.00;;;20.00;54.00;;;;;;5056718;28;20285;-71
2022/11/07 11:23:45;;;;;;;1.92;1.83;;;20.00;53.90;;;;;;5056915;28;20199;-71
2022/11/07 11:26:16;;;;;;;2.10;1.90;;;20.10;53.30;;;;;;5056819;28;20195;-73
2022/11/07 11:28:44;;;;;;;1.83;1.73;;;20.10;53.30;;;;;;5056897;28;20195;-72
2022/11/07 11:31:12;;;;;;;2.13;1.92;;;20.10;53.20;;;;;;5056729;28;20224;-72
2022/11/07 11:33:42;;;;;;;1.98;1.80;;;20.10;53.10;;;;;;5056711;28;20293;-72
2022/11/07 11:36:10;;;;;;;1.98;1.80;;;20.20;53.20;;;;;;5056529;28;20211;-71
2022/11/07 11:38:38;;;;;;;1.80;1.70;;;20.20;53.20;;;;;;5056393;28;20596;-71
2022/11/07 11:41:14;;;;;;;2.28;2.08;;;20.20;53.30;;;;;;5056272;28;20205;-71
2022/11/07 11:43:43;;;;;;;2.08;1.67;;;20.20;53.50;;;;;;5056771;28;20285;-71
2022/11/07 11:46:13;;;;;;;1.98;1.83;;;20.20;53.50;;;;;;5073970;28;20237;-72
2022/11/07 11:48:41;;;;;;;2.83;2.08;;;20.20;53.60;;;;;;5055944;28;20190;-72
2022/11/07 11:51:13;;;;;;;2.65;1.77;;;20.20;53.70;;;;;;5074080;28;20666;-72
2022/11/07 11:53:40;;;;;;;2.08;1.70;;;20.10;53.60;;;;;;5056167;28;20214;-72
2022/11/07 11:56:26;;;;;;;2.17;1.98;;;20.20;53.70;;;;;;5056124;28;20305;-71
2022/11/07 11:58:59;;;;;;;2.42;2.17;;;20.20;53.70;;;;;;5073942;28;20178;-71
2022/11/07 12:01:31;;;;;;;2.08;1.80;;;20.10;53.70;;;;;;5056246;28;20307;-72
2022/11/07 12:04:19;;;;;;;2.17;1.98;;;20.20;53.80;;;;;;5055871;28;20200;-72
2022/11/07 12:06:46;;;;;;;2.10;1.90;;;20.20;53.80;;;;;;5043025;28;20227;-72
2022/11/07 12:09:24;;;;;;;2.13;1.80;;;20.20;53.70;;;;;;5055807;28;20264;-72
2022/11/07 12:12:04;;;;;;;2.35;1.88;;;20.20;53.50;;;;;;5073991;28;20203;-72
2022/11/07 12:14:45;;;;;;;2.00;1.90;;;20.20;53.60;;;;;;5056841;28;20191;-72
2022/11/07 12:17:15;;;;;;;1.50;1.40;;;20.20;53.60;;;;;;5055609;28;20225;-72
2022/11/07 12:19:45;;;;;;;1.80;1.70;;;20.20;53.60;;;;;;5074069;28;20198;-72
2022/11/07 12:22:16;;;;;;;1.90;1.80;;;20.20;53.60;;;;;;5055889;28;20197;-72
2022/11/07 12:24:46;;;;;;;1.85;1.75;;;20.20;53.60;;;;;;5055697;28;20194;-72
2022/11/07 12:27:18;;;;;;;2.40;1.73;;;20.20;53.60;;;;;;5073695;28;20217;-72
2022/11/07 12:29:54;;;;;;;2.58;1.83;;;20.30;53.50;;;;;;5073884;28;20534;-72
2022/11/07 12:32:24;;;;;;;1.90;1.75;;;20.30;53.60;;;;;;5056450;28;20209;-72
2022/11/07 12:35:03;;;;;;;1.80;1.70;;;20.30;53.40;;;;;;5055888;28;20205;-72
2022/11/07 12:37:52;;;;;;;1.98;1.80;;;20.20;53.40;;;;;;5055936;28;20297;-71
2022/11/07 12:40:27;;;;;;;1.73;1.63;;;20.30;53.40;;;;;;5055767;28;20637;-71
2022/11/07 12:43:02;;;;;;;1.77;1.67;;;20.30;53.30;;;;;;5073552;28;20253;-71
2022/11/07 12:45:41;;;;;;;2.00;1.77;;;20.30;53.40;;;;;;5055549;28;20202;-71
2022/11/07 12:48:20;;;;;;;2.33;1.80;;;20.30;53.20;;;;;;5055593;28;20225;-71
2022/11/07 12:50:48;;;;;;;1.75;1.65;;;20.40;53.30;;;;;;5055625;28;20202;-71
2022/11/07 12:53:21;;;;;;;2.10;1.73;;;20.40;53.20;;;;;;5073383;28;20186;-71
2022/11/07 12:55:49;;;;;;;2.10;1.80;;;20.40;53.20;;;;;;5055959;28;20237;-71
2022/11/07 12:58:20;;;;;;;2.38;1.80;;;20.40;53.10;;;;;;5056431;28;20211;-71
2022/11/07 13:00:47;;;;;;;2.10;1.80;;;20.40;53.10;;;;;;5077869;28;20202;-71
2022/11/07 13:03:34;;;;;;;1.95;1.80;;;20.40;53.20;;;;;;5059810;28;20198;-71
2022/11/07 13:06:08;;;;;;;1.88;1.70;;;20.40;53.20;;;;;;5058694;28;20225;-72
2022/11/07 13:08:38;;;;;;;1.50;1.40;;;20.40;53.20;;;;;;5060265;28;20206;-72